sensor_id;sensor_type;location;lat;lon;timestamp;temperature;humidity
56162;DHT22;42045;52.986;6.014;2023-04-03T00:00:04;1.80;99.90
56162;DHT22;42045;52.986;6.014;2023-04-03T00:02:30;1.80;99.90
56162;DHT22;42045;52.986;6.014;2023-04-03T00:04:56;1.70;99.90
56162;DHT22;42045;52.986;6.014;2023-04-03T00:07:21;1.70;99.90
56162;DHT22;42045;52.986;6.014;2023-04-03T00:09:47;1.70;99.90
56162;DHT22;42045;52.986;6.014;2023-04-03T00:12:13;1.70;99.90
56162;DHT22;42045;52.986;6.014;2023-04-03T00:14:38;1.70;99.90
56162;DHT22;42045;52.986;6.014;2023-04-03T00:17:04;1.70;99.90
56162;DHT22;42045;52.986;6.014;2023-04-03T00:19:30;1.70;99.90
56162;DHT22;42045;52.986;6.014;2023-04-03T00:21:56;1.70;99.90
56162;DHT22;42045;52.986;6.014;2023-04-03T00:24:21;1.60;99.90
56162;DHT22;42045;52.986;6.014;2023-04-03T00:26:47;1.60;99.90
56162;DHT22;42045;52.986;6.014;2023-04-03T00:29:13;1.50;99.90
56162;DHT22;42045;52.986;6.014;2023-04-03T00:31:38;1.50;99.90
56162;DHT22;42045;52.986;6.014;2023-04-03T00:34:05;1.40;99.90
56162;DHT22;42045;52.986;6.014;2023-04-03T00:36:31;1.40;99.90
56162;DHT22;42045;52.986;6.014;2023-04-03T00:38:56;1.40;99.90
56162;DHT22;42045;52.986;6.014;2023-04-03T00:41:22;1.40;99.90
56162;DHT22;42045;52.986;6.014;2023-04-03T00:43:48;1.40;99.90
56162;DHT22;42045;52.986;6.014;2023-04-03T00:46:13;1.40;99.90
56162;DHT22;42045;52.986;6.014;2023-04-03T00:48:40;1.40;99.90
56162;DHT22;42045;52.986;6.014;2023-04-03T00:51:42;1.40;99.90
56162;DHT22;42045;52.986;6.014;2023-04-03T00:54:03;1.40;99.90
56162;DHT22;42045;52.986;6.014;2023-04-03T00:56:31;1.30;99.90
56162;DHT22;42045;52.986;6.014;2023-04-03T00:59:10;1.30;99.90
56162;DHT22;42045;52.986;6.014;2023-04-03T01:01:37;1.30;99.90
56162;DHT22;42045;52.986;6.014;2023-04-03T01:04:04;1.30;99.90
56162;DHT22;42045;52.986;6.014;2023-04-03T01:06:36;1.20;99.90
56162;DHT22;42045;52.986;6.014;2023-04-03T01:09:03;1.20;99.90
56162;DHT22;42045;52.986;6.014;2023-04-03T01:11:29;1.10;99.90
56162;DHT22;42045;52.986;6.014;2023-04-03T01:13:56;1.10;99.90
56162;DHT22;42045;52.986;6.014;2023-04-03T01:16:22;1.10;99.90
56162;DHT22;42045;52.986;6.014;2023-04-03T01:18:48;1.10;99.90
56162;DHT22;42045;52.986;6.014;2023-04-03T01:26:35;1.00;99.90
56162;DHT22;42045;52.986;6.014;2023-04-03T01:29:01;0.90;99.90
56162;DHT22;42045;52.986;6.014;2023-04-03T01:34:00;0.90;99.90
56162;DHT22;42045;52.986;6.014;2023-04-03T01:36:31;0.90;99.90
56162;DHT22;42045;52.986;6.014;2023-04-03T01:38:58;0.80;99.90
56162;DHT22;42045;52.986;6.014;2023-04-03T01:41:25;0.80;99.90
56162;DHT22;42045;52.986;6.014;2023-04-03T01:43:51;0.80;99.90
56162;DHT22;42045;52.986;6.014;2023-04-03T01:46:18;0.70;99.90
56162;DHT22;42045;52.986;6.014;2023-04-03T01:48:43;0.70;99.90
56162;DHT22;42045;52.986;6.014;2023-04-03T01:51:09;0.70;99.90
56162;DHT22;42045;52.986;6.014;2023-04-03T01:53:35;0.70;99.90
56162;DHT22;42045;52.986;6.014;2023-04-03T01:56:01;0.60;99.90
56162;DHT22;42045;52.986;6.014;2023-04-03T01:58:26;0.60;99.90
56162;DHT22;42045;52.986;6.014;2023-04-03T02:00:52;0.50;99.90
56162;DHT22;42045;52.986;6.014;2023-04-03T02:03:18;0.60;99.90
56162;DHT22;42045;52.986;6.014;2023-04-03T02:05:44;0.50;99.90
56162;DHT22;42045;52.986;6.014;2023-04-03T02:08:10;0.50;99.90
56162;DHT22;42045;52.986;6.014;2023-04-03T02:10:36;0.40;99.90
56162;DHT22;42045;52.986;6.014;2023-04-03T02:13:01;0.40;99.90
56162;DHT22;42045;52.986;6.014;2023-04-03T02:15:27;0.40;99.90
56162;DHT22;42045;52.986;6.014;2023-04-03T02:17:52;0.40;99.90
56162;DHT22;42045;52.986;6.014;2023-04-03T02:20:18;0.40;99.90
56162;DHT22;42045;52.986;6.014;2023-04-03T02:22:44;0.40;99.90
56162;DHT22;42045;52.986;6.014;2023-04-03T02:25:10;0.30;99.90
56162;DHT22;42045;52.986;6.014;2023-04-03T02:27:36;0.30;99.90
56162;DHT22;42045;52.986;6.014;2023-04-03T02:30:03;0.30;99.90
56162;DHT22;42045;52.986;6.014;2023-04-03T02:32:29;0.30;99.90
56162;DHT22;42045;52.986;6.014;2023-04-03T02:34:55;0.30;99.90
56162;DHT22;42045;52.986;6.014;2023-04-03T02:37:20;0.30;99.90
56162;DHT22;42045;52.986;6.014;2023-04-03T02:39:46;0.20;99.90
56162;DHT22;42045;52.986;6.014;2023-04-03T02:42:12;0.20;99.90
56162;DHT22;42045;52.986;6.014;2023-04-03T02:44:38;0.20;99.90
56162;DHT22;42045;52.986;6.014;2023-04-03T02:47:04;0.20;99.90
56162;DHT22;42045;52.986;6.014;2023-04-03T02:49:31;0.20;99.90
56162;DHT22;42045;52.986;6.014;2023-04-03T02:51:57;0.20;99.90
56162;DHT22;42045;52.986;6.014;2023-04-03T02:54:23;0.10;99.90
56162;DHT22;42045;52.986;6.014;2023-04-03T02:56:49;0.10;99.90
56162;DHT22;42045;52.986;6.014;2023-04-03T02:59:15;0.00;99.90
56162;DHT22;42045;52.986;6.014;2023-04-03T03:01:41;0.00;99.90
56162;DHT22;42045;52.986;6.014;2023-04-03T03:04:07;0.00;99.90
56162;DHT22;42045;52.986;6.014;2023-04-03T03:06:32;0.00;99.90
56162;DHT22;42045;52.986;6.014;2023-04-03T03:08:58;0.00;99.90
56162;DHT22;42045;52.986;6.014;2023-04-03T03:11:24;0.00;99.90
56162;DHT22;42045;52.986;6.014;2023-04-03T03:13:50;-0.10;99.90
56162;DHT22;42045;52.986;6.014;2023-04-03T03:16:16;-0.10;99.90
56162;DHT22;42045;52.986;6.014;2023-04-03T03:18:41;-0.10;99.90
56162;DHT22;42045;52.986;6.014;2023-04-03T03:21:09;-0.10;99.90
56162;DHT22;42045;52.986;6.014;2023-04-03T03:23:35;-0.20;99.90
56162;DHT22;42045;52.986;6.014;2023-04-03T03:26:03;-0.20;99.90
56162;DHT22;42045;52.986;6.014;2023-04-03T03:28:30;-0.20;99.90
56162;DHT22;42045;52.986;6.014;2023-04-03T03:30:57;-0.20;99.90
56162;DHT22;42045;52.986;6.014;2023-04-03T03:33:23;-0.30;99.90
56162;DHT22;42045;52.986;6.014;2023-04-03T03:35:48;-0.20;99.90
56162;DHT22;42045;52.986;6.014;2023-04-03T03:38:14;-0.30;99.90
56162;DHT22;42045;52.986;6.014;2023-04-03T03:40:40;-0.30;99.90
56162;DHT22;42045;52.986;6.014;2023-04-03T03:43:05;-0.30;99.90
56162;DHT22;42045;52.986;6.014;2023-04-03T03:45:31;-0.30;99.90
56162;DHT22;42045;52.986;6.014;2023-04-03T03:47:57;-0.30;99.90
56162;DHT22;42045;52.986;6.014;2023-04-03T03:50:23;-0.40;99.90
56162;DHT22;42045;52.986;6.014;2023-04-03T03:52:48;-0.40;99.90
56162;DHT22;42045;52.986;6.014;2023-04-03T03:55:14;-0.40;99.90
56162;DHT22;42045;52.986;6.014;2023-04-03T03:57:40;-0.40;99.90
56162;DHT22;42045;52.986;6.014;2023-04-03T04:00:06;-0.40;99.90
56162;DHT22;42045;52.986;6.014;2023-04-03T04:02:32;-0.40;99.90
56162;DHT22;42045;52.986;6.014;2023-04-03T04:04:58;-0.40;99.90
56162;DHT22;42045;52.986;6.014;2023-04-03T04:07:24;-0.40;99.90
56162;DHT22;42045;52.986;6.014;2023-04-03T04:09:49;-0.50;99.90
56162;DHT22;42045;52.986;6.014;2023-04-03T04:12:15;-0.50;99.90
56162;DHT22;42045;52.986;6.014;2023-04-03T04:14:41;-0.50;99.90
56162;DHT22;42045;52.986;6.014;2023-04-03T04:17:07;-0.50;99.90
56162;DHT22;42045;52.986;6.014;2023-04-03T04:19:32;-0.50;99.90
56162;DHT22;42045;52.986;6.014;2023-04-03T04:21:58;-0.60;99.90
56162;DHT22;42045;52.986;6.014;2023-04-03T04:24:24;-0.60;99.90
56162;DHT22;42045;52.986;6.014;2023-04-03T04:26:50;-0.60;99.90
56162;DHT22;42045;52.986;6.014;2023-04-03T04:29:15;-0.70;99.90
56162;DHT22;42045;52.986;6.014;2023-04-03T04:31:41;-0.70;99.90
56162;DHT22;42045;52.986;6.014;2023-04-03T04:34:07;-0.70;99.90
56162;DHT22;42045;52.986;6.014;2023-04-03T04:36:32;-0.70;99.90
56162;DHT22;42045;52.986;6.014;2023-04-03T04:38:58;-0.70;99.90
56162;DHT22;42045;52.986;6.014;2023-04-03T04:41:24;-0.70;99.90
56162;DHT22;42045;52.986;6.014;2023-04-03T04:43:50;-0.80;99.90
56162;DHT22;42045;52.986;6.014;2023-04-03T04:46:16;-0.80;99.90
56162;DHT22;42045;52.986;6.014;2023-04-03T04:48:42;-0.80;99.90
56162;DHT22;42045;52.986;6.014;2023-04-03T04:51:08;-0.80;99.90
56162;DHT22;42045;52.986;6.014;2023-04-03T04:53:34;-0.80;99.90
56162;DHT22;42045;52.986;6.014;2023-04-03T04:56:00;-0.80;99.90
56162;DHT22;42045;52.986;6.014;2023-04-03T04:58:25;-0.80;99.90
56162;DHT22;42045;52.986;6.014;2023-04-03T05:01:04;-0.90;99.90
56162;DHT22;42045;52.986;6.014;2023-04-03T05:03:31;-0.90;99.90
56162;DHT22;42045;52.986;6.014;2023-04-03T05:05:57;-0.90;99.90
56162;DHT22;42045;52.986;6.014;2023-04-03T05:08:23;-0.90;99.90
56162;DHT22;42045;52.986;6.014;2023-04-03T05:10:49;-1.00;99.90
56162;DHT22;42045;52.986;6.014;2023-04-03T05:13:15;-0.90;99.90
56162;DHT22;42045;52.986;6.014;2023-04-03T05:15:40;-1.00;99.90
56162;DHT22;42045;52.986;6.014;2023-04-03T05:18:06;-0.90;99.90
56162;DHT22;42045;52.986;6.014;2023-04-03T05:20:33;-0.90;99.90
56162;DHT22;42045;52.986;6.014;2023-04-03T05:22:59;-0.80;99.90
56162;DHT22;42045;52.986;6.014;2023-04-03T05:25:24;-0.60;99.90
56162;DHT22;42045;52.986;6.014;2023-04-03T05:27:50;-0.40;99.90
56162;DHT22;42045;52.986;6.014;2023-04-03T05:30:16;0.00;99.90
56162;DHT22;42045;52.986;6.014;2023-04-03T05:32:42;0.50;99.90
56162;DHT22;42045;52.986;6.014;2023-04-03T05:35:08;1.30;99.90
56162;DHT22;42045;52.986;6.014;2023-04-03T05:37:34;2.30;99.90
56162;DHT22;42045;52.986;6.014;2023-04-03T05:40:00;3.00;99.90
56162;DHT22;42045;52.986;6.014;2023-04-03T05:42:26;3.60;99.90
56162;DHT22;42045;52.986;6.014;2023-04-03T05:44:52;4.30;99.90
56162;DHT22;42045;52.986;6.014;2023-04-03T05:47:18;5.20;99.90
56162;DHT22;42045;52.986;6.014;2023-04-03T05:49:44;5.80;99.90
56162;DHT22;42045;52.986;6.014;2023-04-03T05:52:25;6.30;99.90
56162;DHT22;42045;52.986;6.014;2023-04-03T05:54:52;7.10;99.90
56162;DHT22;42045;52.986;6.014;2023-04-03T05:57:17;8.10;99.90
56162;DHT22;42045;52.986;6.014;2023-04-03T05:59:44;9.10;99.90
56162;DHT22;42045;52.986;6.014;2023-04-03T06:02:16;9.80;99.90
56162;DHT22;42045;52.986;6.014;2023-04-03T06:04:42;10.60;99.90
56162;DHT22;42045;52.986;6.014;2023-04-03T06:07:14;11.50;99.90
56162;DHT22;42045;52.986;6.014;2023-04-03T06:09:41;12.30;99.90
56162;DHT22;42045;52.986;6.014;2023-04-03T06:12:07;12.80;99.90
56162;DHT22;42045;52.986;6.014;2023-04-03T06:14:32;13.20;99.90
56162;DHT22;42045;52.986;6.014;2023-04-03T06:16:58;12.90;99.90
56162;DHT22;42045;52.986;6.014;2023-04-03T06:19:25;12.70;99.90
56162;DHT22;42045;52.986;6.014;2023-04-03T06:21:51;12.20;99.90
56162;DHT22;42045;52.986;6.014;2023-04-03T06:24:17;11.80;99.90
56162;DHT22;42045;52.986;6.014;2023-04-03T06:26:43;11.70;99.90
56162;DHT22;42045;52.986;6.014;2023-04-03T06:29:09;11.60;99.90
56162;DHT22;42045;52.986;6.014;2023-04-03T06:31:35;11.60;99.90
56162;DHT22;42045;52.986;6.014;2023-04-03T06:34:04;11.80;99.90
56162;DHT22;42045;52.986;6.014;2023-04-03T06:36:31;12.10;99.90
56162;DHT22;42045;52.986;6.014;2023-04-03T06:38:57;12.40;99.90
56162;DHT22;42045;52.986;6.014;2023-04-03T06:41:22;12.30;99.90
56162;DHT22;42045;52.986;6.014;2023-04-03T06:43:48;12.60;99.90
56162;DHT22;42045;52.986;6.014;2023-04-03T06:46:15;12.70;99.90
56162;DHT22;42045;52.986;6.014;2023-04-03T06:48:42;12.70;99.90
56162;DHT22;42045;52.986;6.014;2023-04-03T06:51:19;12.30;99.70
56162;DHT22;42045;52.986;6.014;2023-04-03T06:53:46;12.80;99.90
56162;DHT22;42045;52.986;6.014;2023-04-03T06:56:12;12.80;98.20
56162;DHT22;42045;52.986;6.014;2023-04-03T06:58:39;13.00;99.20
56162;DHT22;42045;52.986;6.014;2023-04-03T07:01:04;13.00;98.50
56162;DHT22;42045;52.986;6.014;2023-04-03T07:03:30;12.90;98.90
56162;DHT22;42045;52.986;6.014;2023-04-03T07:05:56;12.50;98.60
56162;DHT22;42045;52.986;6.014;2023-04-03T07:08:22;12.30;98.80
56162;DHT22;42045;52.986;6.014;2023-04-03T07:10:49;11.20;99.20
56162;DHT22;42045;52.986;6.014;2023-04-03T07:13:15;10.20;99.90
56162;DHT22;42045;52.986;6.014;2023-04-03T07:15:41;9.30;99.90
56162;DHT22;42045;52.986;6.014;2023-04-03T07:18:06;8.70;99.90
56162;DHT22;42045;52.986;6.014;2023-04-03T07:20:32;8.20;99.90
56162;DHT22;42045;52.986;6.014;2023-04-03T07:22:58;8.10;99.90
56162;DHT22;42045;52.986;6.014;2023-04-03T07:25:25;7.80;99.90
56162;DHT22;42045;52.986;6.014;2023-04-03T07:27:50;7.70;99.90
56162;DHT22;42045;52.986;6.014;2023-04-03T07:30:16;7.50;99.90
56162;DHT22;42045;52.986;6.014;2023-04-03T07:32:42;7.20;99.90
56162;DHT22;42045;52.986;6.014;2023-04-03T07:35:07;7.20;99.90
56162;DHT22;42045;52.986;6.014;2023-04-03T07:37:33;7.00;99.90
56162;DHT22;42045;52.986;6.014;2023-04-03T07:39:59;6.90;99.90
56162;DHT22;42045;52.986;6.014;2023-04-03T07:42:25;6.90;99.90
56162;DHT22;42045;52.986;6.014;2023-04-03T07:44:54;6.70;99.90
56162;DHT22;42045;52.986;6.014;2023-04-03T07:47:20;6.60;99.90
56162;DHT22;42045;52.986;6.014;2023-04-03T07:49:46;6.60;99.90
56162;DHT22;42045;52.986;6.014;2023-04-03T07:52:12;6.50;99.90
56162;DHT22;42045;52.986;6.014;2023-04-03T07:54:40;6.40;99.90
56162;DHT22;42045;52.986;6.014;2023-04-03T07:57:05;6.40;99.90
56162;DHT22;42045;52.986;6.014;2023-04-03T07:59:32;6.40;99.90
56162;DHT22;42045;52.986;6.014;2023-04-03T08:01:57;6.40;99.90
56162;DHT22;42045;52.986;6.014;2023-04-03T08:04:23;6.40;99.90
56162;DHT22;42045;52.986;6.014;2023-04-03T08:06:49;6.40;99.90
56162;DHT22;42045;52.986;6.014;2023-04-03T08:09:15;6.40;99.90
56162;DHT22;42045;52.986;6.014;2023-04-03T08:11:41;6.40;99.90
56162;DHT22;42045;52.986;6.014;2023-04-03T08:14:07;6.50;99.90
56162;DHT22;42045;52.986;6.014;2023-04-03T08:16:33;6.50;99.90
56162;DHT22;42045;52.986;6.014;2023-04-03T08:18:58;6.50;99.90
56162;DHT22;42045;52.986;6.014;2023-04-03T08:21:24;6.50;99.90
56162;DHT22;42045;52.986;6.014;2023-04-03T08:23:51;6.30;99.90
56162;DHT22;42045;52.986;6.014;2023-04-03T08:26:19;6.30;99.90
56162;DHT22;42045;52.986;6.014;2023-04-03T08:28:46;6.30;99.90
56162;DHT22;42045;52.986;6.014;2023-04-03T08:31:15;6.40;99.90
56162;DHT22;42045;52.986;6.014;2023-04-03T08:33:41;6.40;99.90
56162;DHT22;42045;52.986;6.014;2023-04-03T08:36:16;6.50;99.90
56162;DHT22;42045;52.986;6.014;2023-04-03T08:38:42;6.50;99.90
56162;DHT22;42045;52.986;6.014;2023-04-03T08:41:15;6.50;99.90
56162;DHT22;42045;52.986;6.014;2023-04-03T08:44:21;6.40;99.90
56162;DHT22;42045;52.986;6.014;2023-04-03T08:49:44;6.60;99.90
56162;DHT22;42045;52.986;6.014;2023-04-03T08:52:19;6.60;99.90
56162;DHT22;42045;52.986;6.014;2023-04-03T08:57:20;6.90;99.90
56162;DHT22;42045;52.986;6.014;2023-04-03T08:59:50;6.90;99.90
56162;DHT22;42045;52.986;6.014;2023-04-03T09:02:29;7.00;99.90
56162;DHT22;42045;52.986;6.014;2023-04-03T09:04:56;7.20;99.90
56162;DHT22;42045;52.986;6.014;2023-04-03T09:07:36;7.20;99.90
56162;DHT22;42045;52.986;6.014;2023-04-03T09:10:04;7.10;99.90
56162;DHT22;42045;52.986;6.014;2023-04-03T09:12:42;7.00;99.90
56162;DHT22;42045;52.986;6.014;2023-04-03T09:23:42;7.10;99.10
56162;DHT22;42045;52.986;6.014;2023-04-03T09:26:28;7.20;99.80
56162;DHT22;42045;52.986;6.014;2023-04-03T09:28:59;7.30;99.90
56162;DHT22;42045;52.986;6.014;2023-04-03T09:31:45;7.40;99.90
56162;DHT22;42045;52.986;6.014;2023-04-03T09:34:18;7.60;99.60
56162;DHT22;42045;52.986;6.014;2023-04-03T09:36:51;7.70;99.90
56162;DHT22;42045;52.986;6.014;2023-04-03T09:39:18;7.80;98.90
56162;DHT22;42045;52.986;6.014;2023-04-03T09:44:27;7.80;99.70
56162;DHT22;42045;52.986;6.014;2023-04-03T09:46:53;7.80;99.50
56162;DHT22;42045;52.986;6.014;2023-04-03T09:49:20;7.70;99.50
56162;DHT22;42045;52.986;6.014;2023-04-03T09:51:46;7.70;98.60
56162;DHT22;42045;52.986;6.014;2023-04-03T09:57:00;7.80;98.30
56162;DHT22;42045;52.986;6.014;2023-04-03T09:59:26;7.90;98.90
56162;DHT22;42045;52.986;6.014;2023-04-03T10:02:23;8.00;98.30
56162;DHT22;42045;52.986;6.014;2023-04-03T10:04:52;8.10;98.80
56162;DHT22;42045;52.986;6.014;2023-04-03T10:07:28;8.00;98.10
56162;DHT22;42045;52.986;6.014;2023-04-03T10:09:56;7.90;98.00
56162;DHT22;42045;52.986;6.014;2023-04-03T10:12:22;7.90;98.80
56162;DHT22;42045;52.986;6.014;2023-04-03T10:14:55;7.90;98.00
56162;DHT22;42045;52.986;6.014;2023-04-03T10:20:16;8.30;99.30
56162;DHT22;42045;52.986;6.014;2023-04-03T10:26:05;8.70;99.30
56162;DHT22;42045;52.986;6.014;2023-04-03T10:31:41;8.90;97.10
56162;DHT22;42045;52.986;6.014;2023-04-03T10:34:35;8.90;97.60
56162;DHT22;42045;52.986;6.014;2023-04-03T10:37:25;8.80;97.00
56162;DHT22;42045;52.986;6.014;2023-04-03T10:39:57;8.70;97.20
56162;DHT22;42045;52.986;6.014;2023-04-03T10:50:44;8.30;96.30
56162;DHT22;42045;52.986;6.014;2023-04-03T10:56:13;8.30;97.40
56162;DHT22;42045;52.986;6.014;2023-04-03T10:58:50;8.30;97.90
56162;DHT22;42045;52.986;6.014;2023-04-03T11:01:26;8.40;97.30
56162;DHT22;42045;52.986;6.014;2023-04-03T11:03:58;8.50;96.20
56162;DHT22;42045;52.986;6.014;2023-04-03T11:06:31;8.50;95.70
56162;DHT22;42045;52.986;6.014;2023-04-03T11:09:05;8.40;94.90
56162;DHT22;42045;52.986;6.014;2023-04-03T11:11:38;8.30;95.60
56162;DHT22;42045;52.986;6.014;2023-04-03T11:14:33;8.30;95.60
56162;DHT22;42045;52.986;6.014;2023-04-03T11:22:42;8.60;96.10
56162;DHT22;42045;52.986;6.014;2023-04-03T11:28:00;8.40;95.00
56162;DHT22;42045;52.986;6.014;2023-04-03T11:31:11;8.40;95.20
56162;DHT22;42045;52.986;6.014;2023-04-03T11:34:05;8.30;94.10
56162;DHT22;42045;52.986;6.014;2023-04-03T11:36:42;8.30;95.10
56162;DHT22;42045;52.986;6.014;2023-04-03T11:39:30;8.20;94.00
56162;DHT22;42045;52.986;6.014;2023-04-03T11:42:21;8.20;94.20
56162;DHT22;42045;52.986;6.014;2023-04-03T11:44:49;8.20;95.60
56162;DHT22;42045;52.986;6.014;2023-04-03T11:47:48;8.30;94.10
56162;DHT22;42045;52.986;6.014;2023-04-03T11:50:39;8.50;94.30
56162;DHT22;42045;52.986;6.014;2023-04-03T12:00:49;8.70;95.30
56162;DHT22;42045;52.986;6.014;2023-04-03T12:08:50;9.10;96.20
56162;DHT22;42045;52.986;6.014;2023-04-03T12:11:26;9.10;95.40
56162;DHT22;42045;52.986;6.014;2023-04-03T12:16:29;9.10;94.90
56162;DHT22;42045;52.986;6.014;2023-04-03T12:26:27;8.90;95.30
56162;DHT22;42045;52.986;6.014;2023-04-03T12:28:55;9.00;94.90
56162;DHT22;42045;52.986;6.014;2023-04-03T12:31:25;9.00;94.60
56162;DHT22;42045;52.986;6.014;2023-04-03T12:36:47;9.10;94.60
56162;DHT22;42045;52.986;6.014;2023-04-03T12:41:58;8.90;93.60
56162;DHT22;42045;52.986;6.014;2023-04-03T12:44:37;8.90;94.30
56162;DHT22;42045;52.986;6.014;2023-04-03T12:47:35;8.90;95.70
56162;DHT22;42045;52.986;6.014;2023-04-03T12:50:05;9.00;95.10
56162;DHT22;42045;52.986;6.014;2023-04-03T12:52:51;9.10;96.00
56162;DHT22;42045;52.986;6.014;2023-04-03T12:55:19;9.20;96.00
56162;DHT22;42045;52.986;6.014;2023-04-03T12:57:46;9.20;96.00
56162;DHT22;42045;52.986;6.014;2023-04-03T13:00:33;9.10;95.60
56162;DHT22;42045;52.986;6.014;2023-04-03T13:03:01;9.10;95.00
56162;DHT22;42045;52.986;6.014;2023-04-03T13:05:27;9.00;95.40
56162;DHT22;42045;52.986;6.014;2023-04-03T13:08:06;9.00;96.10
56162;DHT22;42045;52.986;6.014;2023-04-03T13:10:51;9.00;95.60
56162;DHT22;42045;52.986;6.014;2023-04-03T13:13:18;9.00;95.70
56162;DHT22;42045;52.986;6.014;2023-04-03T13:15:47;9.10;95.80
56162;DHT22;42045;52.986;6.014;2023-04-03T13:18:35;9.10;95.70
56162;DHT22;42045;52.986;6.014;2023-04-03T13:23:41;9.20;96.00
56162;DHT22;42045;52.986;6.014;2023-04-03T13:26:08;9.10;95.50
56162;DHT22;42045;52.986;6.014;2023-04-03T13:28:35;9.00;95.70
56162;DHT22;42045;52.986;6.014;2023-04-03T13:33:30;8.90;96.50
56162;DHT22;42045;52.986;6.014;2023-04-03T13:38:31;8.90;96.50
56162;DHT22;42045;52.986;6.014;2023-04-03T13:43:49;8.90;96.00
56162;DHT22;42045;52.986;6.014;2023-04-03T13:48:46;9.00;96.50
56162;DHT22;42045;52.986;6.014;2023-04-03T13:53:54;9.00;96.40
56162;DHT22;42045;52.986;6.014;2023-04-03T13:58:59;9.10;95.90
56162;DHT22;42045;52.986;6.014;2023-04-03T14:01:32;9.10;95.70
56162;DHT22;42045;52.986;6.014;2023-04-03T14:04:10;9.00;95.50
56162;DHT22;42045;52.986;6.014;2023-04-03T14:06:36;8.90;95.70
56162;DHT22;42045;52.986;6.014;2023-04-03T14:09:02;8.90;95.80
56162;DHT22;42045;52.986;6.014;2023-04-03T14:11:30;8.90;95.90
56162;DHT22;42045;52.986;6.014;2023-04-03T14:14:00;8.90;95.30
56162;DHT22;42045;52.986;6.014;2023-04-03T14:16:30;8.90;95.90
56162;DHT22;42045;52.986;6.014;2023-04-03T14:18:56;8.80;95.80
56162;DHT22;42045;52.986;6.014;2023-04-03T14:21:22;8.90;96.00
56162;DHT22;42045;52.986;6.014;2023-04-03T14:23:49;8.90;95.40
56162;DHT22;42045;52.986;6.014;2023-04-03T14:26:23;8.90;95.40
56162;DHT22;42045;52.986;6.014;2023-04-03T14:28:52;8.80;95.10
56162;DHT22;42045;52.986;6.014;2023-04-03T14:31:19;8.70;95.00
56162;DHT22;42045;52.986;6.014;2023-04-03T14:33:46;8.70;95.50
56162;DHT22;42045;52.986;6.014;2023-04-03T14:36:15;8.80;96.10
56162;DHT22;42045;52.986;6.014;2023-04-03T14:38:42;8.70;94.90
56162;DHT22;42045;52.986;6.014;2023-04-03T14:41:12;8.70;95.00
56162;DHT22;42045;52.986;6.014;2023-04-03T14:43:37;8.70;95.10
56162;DHT22;42045;52.986;6.014;2023-04-03T14:46:04;8.70;95.40
56162;DHT22;42045;52.986;6.014;2023-04-03T14:48:31;8.70;96.10
56162;DHT22;42045;52.986;6.014;2023-04-03T14:50:57;8.70;96.10
56162;DHT22;42045;52.986;6.014;2023-04-03T14:53:22;8.80;97.50
56162;DHT22;42045;52.986;6.014;2023-04-03T14:55:50;8.80;96.20
56162;DHT22;42045;52.986;6.014;2023-04-03T14:58:18;8.80;96.50
56162;DHT22;42045;52.986;6.014;2023-04-03T15:00:45;8.80;96.10
56162;DHT22;42045;52.986;6.014;2023-04-03T15:03:19;8.70;95.70
56162;DHT22;42045;52.986;6.014;2023-04-03T15:05:46;8.70;95.80
56162;DHT22;42045;52.986;6.014;2023-04-03T15:08:24;8.70;97.00
56162;DHT22;42045;52.986;6.014;2023-04-03T15:10:51;8.70;96.80
56162;DHT22;42045;52.986;6.014;2023-04-03T15:13:21;8.70;96.60
56162;DHT22;42045;52.986;6.014;2023-04-03T15:15:47;8.70;96.60
56162;DHT22;42045;52.986;6.014;2023-04-03T15:18:21;8.80;97.10
56162;DHT22;42045;52.986;6.014;2023-04-03T15:20:48;8.80;95.90
56162;DHT22;42045;52.986;6.014;2023-04-03T15:23:15;8.70;96.80
56162;DHT22;42045;52.986;6.014;2023-04-03T15:25:45;8.70;97.00
56162;DHT22;42045;52.986;6.014;2023-04-03T15:30:52;8.70;96.70
56162;DHT22;42045;52.986;6.014;2023-04-03T15:33:18;8.70;96.60
56162;DHT22;42045;52.986;6.014;2023-04-03T15:35:44;8.70;97.60
56162;DHT22;42045;52.986;6.014;2023-04-03T15:38:09;8.70;96.90
56162;DHT22;42045;52.986;6.014;2023-04-03T15:40:36;8.60;96.60
56162;DHT22;42045;52.986;6.014;2023-04-03T15:43:01;8.60;97.10
56162;DHT22;42045;52.986;6.014;2023-04-03T15:45:31;8.60;97.20
56162;DHT22;42045;52.986;6.014;2023-04-03T15:47:57;8.60;97.00
56162;DHT22;42045;52.986;6.014;2023-04-03T15:50:23;8.60;97.30
56162;DHT22;42045;52.986;6.014;2023-04-03T15:52:50;8.60;97.30
56162;DHT22;42045;52.986;6.014;2023-04-03T15:55:26;8.60;96.40
56162;DHT22;42045;52.986;6.014;2023-04-03T15:57:53;8.50;96.30
56162;DHT22;42045;52.986;6.014;2023-04-03T16:00:20;8.40;96.10
56162;DHT22;42045;52.986;6.014;2023-04-03T16:02:47;8.40;96.80
56162;DHT22;42045;52.986;6.014;2023-04-03T16:05:15;8.40;96.90
56162;DHT22;42045;52.986;6.014;2023-04-03T16:07:42;8.40;97.00
56162;DHT22;42045;52.986;6.014;2023-04-03T16:10:09;8.30;96.80
56162;DHT22;42045;52.986;6.014;2023-04-03T16:12:36;8.30;97.20
56162;DHT22;42045;52.986;6.014;2023-04-03T16:15:02;8.20;97.20
56162;DHT22;42045;52.986;6.014;2023-04-03T16:17:28;8.20;97.60
56162;DHT22;42045;52.986;6.014;2023-04-03T16:19:55;8.20;98.60
56162;DHT22;42045;52.986;6.014;2023-04-03T16:22:23;8.20;99.80
56162;DHT22;42045;52.986;6.014;2023-04-03T16:24:49;8.20;99.90
56162;DHT22;42045;52.986;6.014;2023-04-03T16:27:16;8.20;99.90
56162;DHT22;42045;52.986;6.014;2023-04-03T16:29:41;8.20;99.90
56162;DHT22;42045;52.986;6.014;2023-04-03T16:32:07;8.10;99.90
56162;DHT22;42045;52.986;6.014;2023-04-03T16:34:33;8.10;99.90
56162;DHT22;42045;52.986;6.014;2023-04-03T16:36:59;8.00;99.40
56162;DHT22;42045;52.986;6.014;2023-04-03T16:39:25;8.00;99.60
56162;DHT22;42045;52.986;6.014;2023-04-03T16:41:51;7.90;99.90
56162;DHT22;42045;52.986;6.014;2023-04-03T16:44:16;7.90;99.90
56162;DHT22;42045;52.986;6.014;2023-04-03T16:46:42;7.80;99.90
56162;DHT22;42045;52.986;6.014;2023-04-03T16:49:08;7.80;99.90
56162;DHT22;42045;52.986;6.014;2023-04-03T16:51:34;7.70;99.90
56162;DHT22;42045;52.986;6.014;2023-04-03T16:53:59;7.70;99.90
56162;DHT22;42045;52.986;6.014;2023-04-03T16:56:25;7.70;99.90
56162;DHT22;42045;52.986;6.014;2023-04-03T16:58:52;7.70;99.90
56162;DHT22;42045;52.986;6.014;2023-04-03T17:01:20;7.60;99.90
56162;DHT22;42045;52.986;6.014;2023-04-03T17:03:46;7.60;99.90
56162;DHT22;42045;52.986;6.014;2023-04-03T17:06:16;7.50;99.90
56162;DHT22;42045;52.986;6.014;2023-04-03T17:08:43;7.40;99.90
56162;DHT22;42045;52.986;6.014;2023-04-03T17:11:09;7.40;99.90
56162;DHT22;42045;52.986;6.014;2023-04-03T17:13:35;7.30;99.90
56162;DHT22;42045;52.986;6.014;2023-04-03T17:16:02;7.20;99.90
56162;DHT22;42045;52.986;6.014;2023-04-03T17:18:30;7.10;99.90
56162;DHT22;42045;52.986;6.014;2023-04-03T17:20:56;7.00;99.90
56162;DHT22;42045;52.986;6.014;2023-04-03T17:23:24;7.00;99.90
56162;DHT22;42045;52.986;6.014;2023-04-03T17:25:50;6.90;99.90
56162;DHT22;42045;52.986;6.014;2023-04-03T17:28:16;6.70;99.90
56162;DHT22;42045;52.986;6.014;2023-04-03T17:30:42;6.70;99.90
56162;DHT22;42045;52.986;6.014;2023-04-03T17:33:08;6.60;99.90
56162;DHT22;42045;52.986;6.014;2023-04-03T17:35:33;6.60;99.90